Time;durP1;ratioP1;P1;durP2;ratioP2;P2;SDS_P1;SDS_P2;PMS_P1;PMS_P2;Temp;Humidity;BMP_temperature;BMP_pressure;BME280_temperature;BME280_humidity;BME280_pressure;Samples;Min_cycle;Max_cycle;Signal;HPM_P1;HPM_P2
2021/07/20 00:00:13;;;;;;;11.88;7.20;;;;;;;;;;362618;145;859086;-67
2021/07/20 00:01:15;;;;;;;14.33;7.73;;;;;;;;;;362620;145;865563;-68
2021/07/20 00:02:19;;;;;;;14.51;7.97;;;;;;;;;;364016;145;863212;-67
2021/07/20 00:03:21;;;;;;;15.58;7.38;;;;;;;;;;362485;148;857209;-65
2021/07/20 00:04:22;;;;;;;13.02;8.33;;;;;;;;;;363854;145;857292;-67
2021/07/20 00:05:25;;;;;;;14.36;8.29;;;;;;;;;;362773;145;857232;-66
2021/07/20 00:06:27;;;;;;;17.70;8.06;;;;;;;;;;362633;146;857321;-66
2021/07/20 00:07:29;;;;;;;9.54;6.98;;;;;;;;;;364019;145;859694;-66
2021/07/20 00:08:30;;;;;;;9.71;7.16;;;;;;;;;;362964;145;857433;-68
2021/07/20 00:09:32;;;;;;;8.90;6.94;;;;;;;;;;364591;146;857879;-66
2021/07/20 00:10:40;;;;;;;10.89;6.92;;;;;;;;;;369382;146;858517;-66
2021/07/20 00:11:42;;;;;;;10.11;6.50;;;;;;;;;;363716;145;858982;-66
2021/07/20 00:12:43;;;;;;;9.10;6.29;;;;;;;;;;364406;146;857184;-67
2021/07/20 00:13:45;;;;;;;6.88;6.20;;;;;;;;;;369042;146;860449;-66
2021/07/20 00:14:47;;;;;;;13.89;6.75;;;;;;;;;;363632;145;864814;-66
2021/07/20 00:15:51;;;;;;;10.75;6.53;;;;;;;;;;364587;145;857327;-66
2021/07/20 00:16:52;;;;;;;10.24;6.92;;;;;;;;;;363263;147;857347;-66
2021/07/20 00:17:55;;;;;;;9.80;7.44;;;;;;;;;;365563;145;858931;-65
2021/07/20 00:18:56;;;;;;;9.30;6.71;;;;;;;;;;363004;145;864970;-66
2021/07/20 00:19:58;;;;;;;10.91;7.19;;;;;;;;;;362598;146;857365;-66
2021/07/20 00:21:02;;;;;;;9.31;6.77;;;;;;;;;;363644;146;857261;-66
2021/07/20 00:22:04;;;;;;;13.01;6.88;;;;;;;;;;363014;145;857516;-66
2021/07/20 00:23:06;;;;;;;14.19;7.29;;;;;;;;;;363719;145;867550;-66
2021/07/20 00:24:07;;;;;;;11.58;7.22;;;;;;;;;;364114;146;857334;-65
2021/07/20 00:25:09;;;;;;;12.70;7.28;;;;;;;;;;364088;145;864974;-68
2021/07/20 00:26:13;;;;;;;11.94;7.04;;;;;;;;;;364052;145;857501;-68
2021/07/20 00:27:15;;;;;;;18.19;7.29;;;;;;;;;;364667;146;857361;-68
2021/07/20 00:28:17;;;;;;;11.34;6.84;;;;;;;;;;369119;145;857260;-68
2021/07/20 00:29:18;;;;;;;12.21;7.13;;;;;;;;;;363655;145;857478;-68
2021/07/20 00:30:22;;;;;;;11.43;6.93;;;;;;;;;;363819;145;858790;-68
2021/07/20 00:31:23;;;;;;;10.99;7.40;;;;;;;;;;368840;146;857241;-67
2021/07/20 00:32:25;;;;;;;13.59;6.84;;;;;;;;;;364022;145;858539;-68
2021/07/20 00:33:26;;;;;;;18.35;7.84;;;;;;;;;;362673;145;857310;-68
2021/07/20 00:34:28;;;;;;;12.00;6.99;;;;;;;;;;362689;148;857283;-68
2021/07/20 00:35:29;;;;;;;15.63;7.36;;;;;;;;;;364804;145;859044;-66
2021/07/20 00:36:32;;;;;;;17.04;6.99;;;;;;;;;;364395;145;857999;-66
2021/07/20 00:37:34;;;;;;;20.83;6.83;;;;;;;;;;362699;147;858963;-66
2021/07/20 00:38:35;;;;;;;17.03;6.35;;;;;;;;;;362466;148;857434;-66
2021/07/20 00:39:37;;;;;;;15.39;6.55;;;;;;;;;;363262;145;864982;-66
2021/07/20 00:40:39;;;;;;;10.69;6.59;;;;;;;;;;364086;145;857332;-66
2021/07/20 00:41:41;;;;;;;13.43;6.46;;;;;;;;;;363366;148;857238;-66
2021/07/20 00:42:43;;;;;;;18.59;7.25;;;;;;;;;;362952;146;864909;-66
2021/07/20 00:43:45;;;;;;;9.78;6.36;;;;;;;;;;362968;145;857170;-66
2021/07/20 00:44:46;;;;;;;12.63;7.42;;;;;;;;;;363370;147;857258;-66
2021/07/20 00:45:48;;;;;;;12.64;6.77;;;;;;;;;;363377;147;857325;-66
2021/07/20 00:46:51;;;;;;;11.37;6.14;;;;;;;;;;363828;145;857311;-66
2021/07/20 00:47:53;;;;;;;12.28;6.77;;;;;;;;;;362856;146;858762;-66
2021/07/20 00:48:54;;;;;;;13.74;6.65;;;;;;;;;;363230;146;857297;-66
2021/07/20 00:49:56;;;;;;;11.96;6.68;;;;;;;;;;363649;145;857164;-66
2021/07/20 00:50:58;;;;;;;12.01;6.73;;;;;;;;;;363319;145;865267;-65
2021/07/20 00:52:00;;;;;;;13.68;6.31;;;;;;;;;;362480;148;859052;-66
2021/07/20 00:53:03;;;;;;;12.16;6.66;;;;;;;;;;363389;145;857931;-66
2021/07/20 00:54:05;;;;;;;12.39;6.34;;;;;;;;;;362318;148;858372;-68
2021/07/20 00:55:07;;;;;;;9.76;6.03;;;;;;;;;;364509;146;859062;-66
2021/07/20 00:56:09;;;;;;;16.06;7.36;;;;;;;;;;368725;146;859160;-66
2021/07/20 00:57:11;;;;;;;14.48;6.79;;;;;;;;;;364616;146;859767;-66
2021/07/20 00:58:13;;;;;;;12.01;6.87;;;;;;;;;;363032;146;865223;-67
2021/07/20 00:59:14;;;;;;;10.29;6.54;;;;;;;;;;364077;147;857350;-66
2021/07/20 01:00:18;;;;;;;15.93;6.19;;;;;;;;;;359406;148;857795;-66
2021/07/20 01:01:19;;;;;;;12.14;6.79;;;;;;;;;;359529;148;859955;-66
2021/07/20 01:02:21;;;;;;;9.84;5.99;;;;;;;;;;362930;148;859350;-66
2021/07/20 01:03:23;;;;;;;11.53;7.22;;;;;;;;;;363440;145;864936;-66
2021/07/20 01:04:24;;;;;;;16.44;6.72;;;;;;;;;;364158;144;857320;-66
2021/07/20 01:05:26;;;;;;;12.41;6.41;;;;;;;;;;363212;148;857393;-66
2021/07/20 01:06:28;;;;;;;16.08;6.49;;;;;;;;;;363601;148;857339;-66
2021/07/20 01:07:30;;;;;;;10.56;6.52;;;;;;;;;;363421;144;857284;-66
2021/07/20 01:08:31;;;;;;;12.51;5.91;;;;;;;;;;363128;144;866687;-66
2021/07/20 01:09:33;;;;;;;16.47;6.37;;;;;;;;;;363254;148;857245;-66
2021/07/20 01:10:37;;;;;;;12.61;5.77;;;;;;;;;;364809;144;859174;-66
2021/07/20 01:11:39;;;;;;;12.28;6.72;;;;;;;;;;363088;144;865222;-66
2021/07/20 01:12:41;;;;;;;9.21;6.06;;;;;;;;;;364233;145;859084;-66
2021/07/20 01:13:42;;;;;;;10.25;5.31;;;;;;;;;;365011;144;865584;-67
2021/07/20 01:14:44;;;;;;;11.14;5.75;;;;;;;;;;363177;144;858643;-67
2021/07/20 01:15:45;;;;;;;12.41;6.46;;;;;;;;;;363168;144;865535;-67
2021/07/20 01:16:49;;;;;;;11.34;6.17;;;;;;;;;;363098;148;857372;-67
2021/07/20 01:17:53;;;;;;;11.22;6.22;;;;;;;;;;363692;144;858991;-67
2021/07/20 01:18:54;;;;;;;12.99;6.81;;;;;;;;;;363156;144;858399;-67
2021/07/20 01:19:56;;;;;;;11.15;6.63;;;;;;;;;;366966;145;866623;-67
2021/07/20 01:20:58;;;;;;;17.42;7.01;;;;;;;;;;367097;145;866065;-67
2021/07/20 01:22:00;;;;;;;12.22;6.65;;;;;;;;;;364258;144;858746;-67
2021/07/20 01:23:07;;;;;;;15.71;6.31;;;;;;;;;;363504;147;857755;-67
2021/07/20 01:24:09;;;;;;;15.56;7.32;;;;;;;;;;364139;144;857332;-67
2021/07/20 01:25:12;;;;;;;14.90;7.30;;;;;;;;;;363153;144;861074;-67
2021/07/20 01:26:14;;;;;;;12.00;6.71;;;;;;;;;;363143;145;857255;-67
2021/07/20 01:27:15;;;;;;;13.15;6.78;;;;;;;;;;363256;145;859680;-67
2021/07/20 01:28:22;;;;;;;19.86;6.76;;;;;;;;;;363143;144;864984;-68
2021/07/20 01:29:23;;;;;;;13.79;7.15;;;;;;;;;;366448;144;864915;-67
2021/07/20 01:30:26;;;;;;;22.91;7.94;;;;;;;;;;370116;145;857243;-68
2021/07/20 01:31:28;;;;;;;28.05;8.12;;;;;;;;;;367394;144;858999;-67
2021/07/20 01:32:29;;;;;;;23.84;7.66;;;;;;;;;;363150;144;857913;-67
2021/07/20 01:33:32;;;;;;;35.74;7.90;;;;;;;20.76;95.49;151234.72;364274;144;857698;-67
2021/07/20 01:34:33;;;;;;;6.20;5.22;;;;;;;;;;365328;147;857373;-67
2021/07/20 01:35:35;;;;;;;9.56;5.61;;;;;;;;;;363293;145;858549;-67
2021/07/20 01:36:37;;;;;;;9.37;5.95;;;;;;;;;;363276;144;857285;-67
2021/07/20 01:37:39;;;;;;;22.37;6.06;;;;;;;;;;369356;145;857259;-67
2021/07/20 01:38:40;;;;;;;24.10;6.06;;;;;;;;;;366949;145;864413;-66
2021/07/20 01:39:42;;;;;;;8.06;5.53;;;;;;;;;;363856;144;857266;-67
2021/07/20 01:40:45;;;;;;;8.68;5.96;;;;;;;;;;356165;151;858977;-66
2021/07/20 01:41:46;;;;;;;11.56;6.03;;;;;;;;;;361099;147;857072;-66
2021/07/20 01:42:48;;;;;;;6.94;5.33;;;;;;;;;;363543;145;859295;-66
2021/07/20 01:43:51;;;;;;;9.28;6.61;;;;;;;;;;363672;144;865692;-66
2021/07/20 01:44:53;;;;;;;9.33;5.66;;;;;;;;;;367251;145;857388;-66
2021/07/20 01:45:55;;;;;;;9.65;5.65;;;;;;;;;;364095;144;857206;-66
2021/07/20 01:46:57;;;;;;;9.27;6.26;;;;;;;;;;364570;144;857262;-66
2021/07/20 01:47:59;;;;;;;8.15;6.05;;;;;;;;;;364928;147;857256;-68
2021/07/20 01:49:01;;;;;;;7.33;5.59;;;;;;;;;;363375;145;859026;-67
2021/07/20 01:50:04;;;;;;;6.80;5.65;;;;;;;;;;362935;144;859118;-66
2021/07/20 01:51:05;;;;;;;8.69;5.28;;;;;;;;;;363342;145;857814;-68
2021/07/20 01:52:07;;;;;;;6.25;5.19;;;;;;;;;;363245;144;857357;-68
2021/07/20 01:53:08;;;;;;;7.12;4.64;;;;;;;;;;364553;145;857330;-68
2021/07/20 01:54:10;;;;;;;8.19;5.05;;;;;;;;;;363912;144;864931;-66
2021/07/20 01:55:12;;;;;;;8.80;4.09;;;;;;;;;;363257;148;857398;-67
2021/07/20 01:56:14;;;;;;;6.36;4.05;;;;;;;;;;366129;144;857363;-65
2021/07/20 01:57:16;;;;;;;5.89;3.56;;;;;;;;;;363293;144;864716;-68
2021/07/20 01:58:18;;;;;;;3.54;3.24;;;;;;;;;;363633;147;864815;-68
2021/07/20 01:59:19;;;;;;;5.41;3.20;;;;;;;;;;363879;145;864737;-68
2021/07/20 02:00:23;;;;;;;3.17;2.89;;;;;;;;;;363149;145;857142;-68
2021/07/20 02:01:30;;;;;;;4.31;3.51;;;;;;;;;;364725;145;857248;-69
2021/07/20 02:02:36;;;;;;;5.43;3.14;;;;;;;;;;367207;145;857317;-68
2021/07/20 02:08:23;;;;;;;6.41;3.22;;;;;;;;;;362438;145;857728;-66
2021/07/20 02:09:27;;;;;;;4.71;3.27;;;;;;;;;;363184;146;866571;-67
2021/07/20 02:10:29;;;;;;;10.24;4.11;;;;;;;;;;363647;145;857303;-67
2021/07/20 02:11:33;;;;;;;5.31;3.49;;;;;;;;;;365567;145;865726;-67
2021/07/20 02:12:39;;;;;;;5.58;3.51;;;;;;;;;;366349;146;864853;-67
2021/07/20 02:13:44;;;;;;;6.87;3.41;;;;;;;;;;362820;145;866543;-67
2021/07/20 02:14:46;;;;;;;7.90;3.66;;;;;;;;;;361667;145;859209;-67
2021/07/20 02:15:48;;;;;;;4.38;3.67;;;;;;;;;;362696;146;859158;-68
2021/07/20 02:16:50;;;;;;;12.09;3.78;;;;;;;;;;362534;145;857344;-68
2021/07/20 02:17:52;;;;;;;8.02;3.79;;;;;;;;;;364495;146;857253;-68
2021/07/20 02:19:04;;;;;;;7.50;3.94;;;;;;;;;;363272;145;864751;-68
2021/07/20 02:20:08;;;;;;;7.67;4.53;;;;;;;;;;363120;146;857236;-67
2021/07/20 02:21:10;;;;;;;10.03;4.26;;;;;;;;;;362626;145;857329;-67
2021/07/20 02:22:13;;;;;;;10.59;5.01;;;;;;;;;;362731;145;866602;-67
2021/07/20 02:23:15;;;;;;;11.85;5.24;;;;;;;;;;359186;148;856745;-68
2021/07/20 02:24:17;;;;;;;9.50;5.61;;;;;;;;;;360868;148;858084;-68
2021/07/20 02:25:18;;;;;;;10.28;5.28;;;;;;;;;;363739;145;857199;-67
2021/07/20 02:26:20;;;;;;;8.15;5.25;;;;;;;;;;362808;146;857159;-67
2021/07/20 02:27:23;;;;;;;10.21;5.59;;;;;;;;;;366473;145;857175;-66
2021/07/20 02:28:24;;;;;;;12.21;5.95;;;;;;;;;;364057;145;857379;-67
2021/07/20 02:29:26;;;;;;;12.12;6.31;;;;;;;;;;362746;145;857559;-66
2021/07/20 02:30:28;;;;;;;10.23;5.83;;;;;;;;;;363019;146;859042;-67
2021/07/20 02:31:29;;;;;;;11.11;6.21;;;;;;;;;;362579;146;857746;-66
2021/07/20 02:32:31;;;;;;;12.16;6.32;;;;;;;;;;365684;145;859631;-66
2021/07/20 02:33:32;;;;;;;14.16;6.07;;;;;;;;;;362679;146;857264;-66
2021/07/20 02:34:35;;;;;;;9.09;5.84;;;;;;;;;;363104;145;857388;-66
2021/07/20 02:35:36;;;;;;;13.43;5.15;;;;;;;;;;363404;145;857336;-66
2021/07/20 02:36:39;;;;;;;13.99;4.41;;;;;;;;;;362981;146;857220;-66
2021/07/20 02:37:42;;;;;;;12.06;4.72;;;;;;;;;;362881;146;857346;-66
2021/07/20 02:38:43;;;;;;;10.78;5.49;;;;;;;;;;362694;146;857274;-67
2021/07/20 02:39:45;;;;;;;11.74;5.36;;;;;;;;;;362993;145;857219;-67
2021/07/20 02:40:47;;;;;;;13.82;6.51;;;;;;;;;;363075;148;858281;-67
2021/07/20 02:41:49;;;;;;;10.81;5.10;;;;;;;;;;363249;146;857984;-67
2021/07/20 02:42:52;;;;;;;13.05;5.51;;;;;;;;;;363716;145;858109;-67
2021/07/20 02:43:53;;;;;;;10.65;5.76;;;;;;;;;;363105;146;859208;-67
2021/07/20 02:44:55;;;;;;;10.94;4.73;;;;;;;;;;363307;145;858854;-67
2021/07/20 02:45:56;;;;;;;20.25;5.05;;;;;;;;;;362628;145;857321;-67
2021/07/20 02:46:59;;;;;;;9.51;4.57;;;;;;;;;;362668;148;857236;-67
2021/07/20 02:48:00;;;;;;;8.86;4.25;;;;;;;;;;363498;146;857261;-67
2021/07/20 02:49:02;;;;;;;17.14;4.89;;;;;;;;;;364225;145;857349;-67
2021/07/20 02:50:05;;;;;;;8.47;5.04;;;;;;;;;;363117;145;857263;-67
2021/07/20 02:51:08;;;;;;;12.22;5.53;;;;;;;;;;358701;148;865092;-67
2021/07/20 02:52:10;;;;;;;11.28;4.74;;;;;;;;;;359645;148;859912;-67
2021/07/20 02:53:12;;;;;;;10.04;4.57;;;;;;;;;;363949;145;858203;-66
2021/07/20 02:54:14;;;;;;;14.85;5.57;;;;;;;;;;363293;146;857332;-66
2021/07/20 02:55:16;;;;;;;10.48;5.03;;;;;;;;;;363438;146;857367;-67
2021/07/20 02:56:18;;;;;;;9.61;4.63;;;;;;;;;;362524;145;857228;-68
2021/07/20 02:57:20;;;;;;;15.19;4.48;;;;;;;;;;362395;145;857462;-68
2021/07/20 02:58:21;;;;;;;8.64;4.34;;;;;;;;;;367019;146;857365;-68
2021/07/20 02:59:24;;;;;;;11.25;3.95;;;;;;;;;;362436;145;858203;-68
2021/07/20 03:00:26;;;;;;;13.57;4.23;;;;;;;;;;363316;145;857288;-69
2021/07/20 03:01:27;;;;;;;12.71;4.02;;;;;;;;;;362661;146;857223;-66
2021/07/20 03:02:29;;;;;;;8.35;3.91;;;;;;;;;;357255;148;858712;-66
2021/07/20 03:03:31;;;;;;;11.22;4.48;;;;;;;;;;359544;148;859544;-67
2021/07/20 03:04:32;;;;;;;10.55;4.16;;;;;;;;;;364318;146;866959;-67
2021/07/20 03:05:34;;;;;;;9.45;4.76;;;;;;;;;;362591;146;865483;-67
2021/07/20 03:06:38;;;;;;;8.03;4.12;;;;;;;;;;351063;149;859187;-67
2021/07/20 03:07:39;;;;;;;11.44;4.84;;;;;;;;;;363051;145;857188;-67
2021/07/20 03:08:41;;;;;;;7.15;4.40;;;;;;;;;;363069;146;857234;-67
2021/07/20 03:09:44;;;;;;;11.01;5.11;;;;;;;;;;362968;145;859460;-67
2021/07/20 03:10:46;;;;;;;15.31;5.37;;;;;;;;;;363048;145;857380;-68
2021/07/20 03:11:48;;;;;;;8.45;4.61;;;;;;;;;;362629;148;857693;-68
2021/07/20 03:12:50;;;;;;;11.58;5.33;;;;;;;;;;362711;145;859468;-68
2021/07/20 03:13:51;;;;;;;8.38;4.75;;;;;;;;;;363245;145;858944;-68
2021/07/20 03:14:53;;;;;;;7.34;4.56;;;;;;;;;;362681;145;857302;-68
2021/07/20 03:15:55;;;;;;;10.51;4.80;;;;;;;;;;359858;148;866292;-66
2021/07/20 03:16:57;;;;;;;12.29;4.65;;;;;;;;;;359715;146;858261;-68
2021/07/20 03:18:01;;;;;;;13.32;4.95;;;;;;;;;;363111;145;859017;-68
2021/07/20 03:19:03;;;;;;;15.36;5.01;;;;;;;;;;363329;146;858157;-68
2021/07/20 03:20:06;;;;;;;9.92;5.44;;;;;;;;;;363010;145;858360;-67
2021/07/20 03:21:07;;;;;;;13.59;5.65;;;;;;;;;;362707;146;857319;-67
2021/07/20 03:22:09;;;;;;;11.54;6.34;;;;;;;;;;363742;146;857368;-67
2021/07/20 03:23:12;;;;;;;9.02;5.68;;;;;;;;;;362919;145;857422;-67
2021/07/20 03:24:13;;;;;;;14.10;7.90;;;;;;;;;;363252;146;856520;-67
2021/07/20 03:25:15;;;;;;;12.44;8.30;;;;;;;;;;363685;145;857841;-67
2021/07/20 03:26:17;;;;;;;11.57;7.53;;;;;;;;;;364942;145;858429;-67
2021/07/20 03:27:20;;;;;;;15.71;8.82;;;;;;;;;;362892;145;860288;-67
2021/07/20 03:28:22;;;;;;;11.10;8.37;;;;;;;;;;364023;145;857343;-67
2021/07/20 03:29:24;;;;;;;15.85;9.26;;;;;;;;;;364551;145;857194;-66
2021/07/20 03:30:26;;;;;;;18.11;8.74;;;;;;;;;;363352;144;857513;-66
2021/07/20 03:31:28;;;;;;;13.57;8.52;;;;;;;;;;364883;145;858640;-66
2021/07/20 03:32:29;;;;;;;14.42;8.64;;;;;;;;;;362891;147;857329;-67
2021/07/20 03:33:31;;;;;;;11.34;7.61;;;;;;;;;;363484;147;857903;-67
2021/07/20 03:34:33;;;;;;;11.01;6.20;;;;;;;;;;365257;145;857365;-66
2021/07/20 03:35:34;;;;;;;12.96;7.21;;;;;;;;;;363072;145;857321;-67
2021/07/20 03:36:37;;;;;;;16.91;6.74;;;;;;;;;;363037;146;859433;-67
2021/07/20 03:37:39;;;;;;;12.54;8.13;;;;;;;;;;364227;145;858998;-67
2021/07/20 03:38:40;;;;;;;12.11;7.38;;;;;;;;;;363028;145;859221;-67
2021/07/20 03:39:42;;;;;;;12.76;7.91;;;;;;;;;;363366;146;859845;-67
2021/07/20 03:40:44;;;;;;;10.46;6.75;;;;;;;;;;362590;146;857171;-68
2021/07/20 03:41:46;;;;;;;9.91;6.41;;;;;;;;;;363337;145;857300;-67
2021/07/20 03:42:47;;;;;;;9.61;5.11;;;;;;;;;;364676;146;864936;-67
2021/07/20 03:43:49;;;;;;;11.97;6.02;;;;;;;;;;366200;146;857237;-67
2021/07/20 03:44:50;;;;;;;15.19;5.91;;;;;;;;;;364121;145;857295;-67
2021/07/20 03:45:52;;;;;;;13.27;6.13;;;;;;;;;;362495;145;857374;-68
2021/07/20 03:46:55;;;;;;;12.19;6.17;;;;;;;;;;362999;144;857319;-68
2021/07/20 03:47:56;;;;;;;13.30;8.29;;;;;;;;;;362853;146;857292;-68
2021/07/20 03:48:58;;;;;;;9.78;7.23;;;;;;;;;;362476;145;859029;-68
2021/07/20 03:49:59;;;;;;;12.66;7.52;;;;;;;;;;367849;146;859091;-68
2021/07/20 03:51:01;;;;;;;10.94;7.51;;;;;;;;;;362962;145;866137;-68
2021/07/20 03:52:03;;;;;;;11.07;7.02;;;;;;;;;;363127;146;858884;-68
2021/07/20 03:53:05;;;;;;;11.26;7.01;;;;;;;;;;363414;145;859507;-68
2021/07/20 03:54:07;;;;;;;12.11;8.09;;;;;;;;;;363358;146;859726;-68
2021/07/20 03:55:09;;;;;;;14.56;8.18;;;;;;;;;;365882;145;857366;-68
2021/07/20 03:56:11;;;;;;;16.49;8.39;;;;;;;;;;362464;145;857607;-68
2021/07/20 03:57:15;;;;;;;14.85;8.22;;;;;;;;;;356629;149;857167;-68
2021/07/20 03:58:17;;;;;;;11.51;7.76;;;;;;;;;;357191;145;866666;-67
2021/07/20 03:59:18;;;;;;;11.91;7.75;;;;;;;;;;364070;145;858851;-67
2021/07/20 04:00:22;;;;;;;11.51;8.27;;;;;;;;;;362657;146;864947;-67
2021/07/20 04:01:25;;;;;;;16.13;7.74;;;;;;;;;;362671;146;858942;-67
2021/07/20 04:02:28;;;;;;;10.04;7.62;;;;;;;;;;363621;145;857780;-67
2021/07/20 04:03:30;;;;;;;18.45;7.44;;;;;;;;;;363583;145;865023;-67
2021/07/20 04:04:34;;;;;;;12.76;7.74;;;;;;;;;;365134;145;857340;-67
2021/07/20 04:05:36;;;;;;;12.43;8.54;;;;;;;;;;363538;145;857458;-67
2021/07/20 04:06:39;;;;;;;17.86;9.19;;;;;;;;;;363583;144;866681;-67
2021/07/20 04:07:41;;;;;;;12.72;9.19;;;;;;;;;;365863;145;857220;-67
2021/07/20 04:08:43;;;;;;;12.70;9.50;;;;;;;;;;363689;144;857180;-67
2021/07/20 04:09:45;;;;;;;15.93;9.41;;;;;;;;;;364178;145;857238;-67
2021/07/20 04:10:48;;;;;;;12.38;9.76;;;;;;;;;;363444;144;857249;-67
2021/07/20 04:11:49;;;;;;;12.98;9.62;;;;;;;;;;365271;145;857273;-67
2021/07/20 04:12:51;;;;;;;16.65;9.87;;;;;;;;;;365732;145;857617;-66
2021/07/20 04:13:53;;;;;;;13.26;9.79;;;;;;;;;;364159;144;857199;-67
2021/07/20 04:14:55;;;;;;;11.69;9.30;;;;;;;;;;363491;147;857239;-67
2021/07/20 04:16:01;;;;;;;13.43;9.45;;;;;;;;;;365354;144;866183;-67
2021/07/20 04:17:03;;;;;;;15.19;9.71;;;;;;;;;;363051;144;864937;-67
2021/07/20 04:18:04;;;;;;;13.01;9.34;;;;;;;;;;363337;148;858976;-67
2021/07/20 04:19:08;;;;;;;12.21;9.08;;;;;;;;;;364520;145;866068;-67
2021/07/20 04:20:12;;;;;;;13.30;9.39;;;;;;;;;;364103;145;865746;-67
2021/07/20 04:21:14;;;;;;;13.96;8.99;;;;;;;;;;364226;144;857227;-67
2021/07/20 04:22:16;;;;;;;13.48;9.49;;;;;;;;;;363850;145;864972;-67
2021/07/20 04:23:20;;;;;;;17.71;9.13;;;;;;;;;;364227;145;857284;-67
2021/07/20 04:24:23;;;;;;;11.01;9.19;;;;;;;;;;363304;144;866719;-66
2021/07/20 04:25:25;;;;;;;11.49;8.67;;;;;;;;;;363792;145;859363;-66
2021/07/20 04:26:28;;;;;;;12.61;8.81;;;;;;;;;;365535;144;858758;-66
2021/07/20 04:27:30;;;;;;;11.91;9.49;;;;;;;;;;364065;144;857716;-67
2021/07/20 04:28:31;;;;;;;14.55;8.99;;;;;;;;;;364249;145;857286;-66
2021/07/20 04:29:33;;;;;;;12.44;8.81;;;;;;;;;;367095;145;857307;-66
2021/07/20 04:30:36;;;;;;;16.75;9.19;;;;;;;;;;363415;144;857323;-66
2021/07/20 04:31:38;;;;;;;15.93;10.09;;;;;;;;;;364463;144;857297;-67
2021/07/20 04:32:40;;;;;;;13.66;9.96;;;;;;;;;;364273;145;857305;-67
2021/07/20 04:33:42;;;;;;;16.41;9.66;;;;;;;;;;363637;144;858863;-67
2021/07/20 04:34:43;;;;;;;11.80;8.94;;;;;;;;;;364024;144;857259;-67
2021/07/20 04:35:45;;;;;;;13.41;9.38;;;;;;;;;;363739;147;859656;-67
2021/07/20 04:36:48;;;;;;;12.32;9.28;;;;;;;;;;364821;144;859528;-67
2021/07/20 04:37:50;;;;;;;12.11;9.04;;;;;;;;;;364338;144;867889;-67
2021/07/20 04:38:52;;;;;;;13.48;8.56;;;;;;;;;;363979;144;858249;-67
2021/07/20 04:39:53;;;;;;;11.01;8.07;;;;;;;;;;363351;148;858219;-67
2021/07/20 04:40:57;;;;;;;15.39;9.38;;;;;;;;;;363209;144;857351;-67
2021/07/20 04:41:58;;;;;;;16.65;9.97;;;;;;;;;;363320;144;859009;-67
2021/07/20 04:43:00;;;;;;;11.94;8.73;;;;;;;;;;363338;148;857790;-67
2021/07/20 04:44:02;;;;;;;11.02;9.27;;;;;;;;;;364624;144;857219;-67
2021/07/20 04:45:04;;;;;;;13.44;9.41;;;;;;;;;;363177;144;857471;-67
2021/07/20 04:46:07;;;;;;;11.66;8.45;;;;;;;;;;363460;145;859876;-67
2021/07/20 04:47:08;;;;;;;13.43;9.16;;;;;;;;;;363966;145;859235;-67
2021/07/20 04:48:11;;;;;;;14.69;9.67;;;;;;;;;;364492;144;865124;-67
2021/07/20 04:49:14;;;;;;;14.36;9.05;;;;;;;;;;366971;144;857490;-66
2021/07/20 04:50:16;;;;;;;11.39;8.68;;;;;;;;;;363860;145;857468;-68
2021/07/20 04:51:18;;;;;;;12.75;9.10;;;;;;;;;;363480;145;857250;-67
2021/07/20 04:52:19;;;;;;;13.77;9.04;;;;;;;;;;363835;144;859012;-67
2021/07/20 04:53:21;;;;;;;12.31;8.48;;;;;;;;;;364078;145;857862;-68
2021/07/20 04:54:23;;;;;;;15.14;9.50;;;;;;;;;;367897;144;859149;-67
2021/07/20 04:55:24;;;;;;;12.82;9.66;;;;;;;;;;363898;144;865036;-67
2021/07/20 04:56:26;;;;;;;14.33;9.18;;;;;;;;;;363396;145;857266;-67
2021/07/20 04:57:29;;;;;;;13.90;9.12;;;;;;;;;;363487;145;857754;-69
2021/07/20 04:58:30;;;;;;;14.57;9.29;;;;;;;;;;363659;144;857334;-67
2021/07/20 04:59:32;;;;;;;15.39;9.38;;;;;;;;;;363472;144;857453;-67
2021/07/20 05:00:34;;;;;;;14.42;9.10;;;;;;;;;;364483;145;865114;-66
2021/07/20 05:01:36;;;;;;;13.37;9.86;;;;;;;;;;364046;144;859049;-67
2021/07/20 05:02:39;;;;;;;13.40;10.18;;;;;;;;;;363330;144;859067;-66
2021/07/20 05:03:40;;;;;;;13.65;9.55;;;;;;;;;;365326;145;858213;-66
2021/07/20 05:04:43;;;;;;;14.06;10.26;;;;;;;;;;363101;144;858914;-67
2021/07/20 05:05:44;;;;;;;14.84;10.08;;;;;;;;;;363009;144;866242;-67
2021/07/20 05:06:47;;;;;;;16.23;12.77;;;;;;;;;;363267;145;859512;-68
2021/07/20 05:07:50;;;;;;;16.94;9.37;;;;;;;;;;359818;148;858156;-68
2021/07/20 05:08:53;;;;;;;16.29;10.31;;;;;;;;;;359398;147;857330;-68
2021/07/20 05:09:55;;;;;;;14.89;10.25;;;;;;;;;;362496;144;865015;-68
2021/07/20 05:10:59;;;;;;;12.33;9.58;;;;;;;;;;364351;146;858549;-67
2021/07/20 05:12:01;;;;;;;16.72;9.90;;;;;;;;;;365151;144;861131;-67
2021/07/20 05:13:03;;;;;;;12.71;9.75;;;;;;;;;;363845;144;857389;-67
2021/07/20 05:14:04;;;;;;;13.76;10.15;;;;;;;;;;362501;148;860549;-66
2021/07/20 05:15:06;;;;;;;12.84;10.43;;;;;;;;;;363458;146;857457;-67
2021/07/20 05:16:10;;;;;;;15.14;9.69;;;;;;;;;;362586;146;865110;-67
2021/07/20 05:17:11;;;;;;;14.04;10.12;;;;;;;;;;356819;147;857898;-66
2021/07/20 05:18:13;;;;;;;17.44;10.54;;;;;;;;;;360405;146;856617;-67
2021/07/20 05:19:15;;;;;;;10.54;9.09;;;;;;;;;;363129;144;859823;-67
2021/07/20 05:20:18;;;;;;;13.70;10.22;;;;;;;;;;363188;144;857920;-67
2021/07/20 05:21:19;;;;;;;12.89;9.90;;;;;;;;;;362464;148;857484;-67
2021/07/20 05:22:21;;;;;;;14.57;9.79;;;;;;;;;;359612;146;858105;-67
2021/07/20 05:23:23;;;;;;;16.46;10.13;;;;;;;;;;363226;144;866103;-67
2021/07/20 05:24:25;;;;;;;15.35;9.89;;;;;;;;;;362460;144;865959;-67
2021/07/20 05:25:26;;;;;;;15.26;10.36;;;;;;;;;;362491;146;857597;-67
2021/07/20 05:26:28;;;;;;;11.37;9.14;;;;;;;;;;365240;144;857377;-68
2021/07/20 05:27:37;;;;;;;12.66;9.71;;;;;;;;;;362481;146;857438;-67
2021/07/20 05:28:38;;;;;;;15.75;9.51;;;;;;;;;;368117;144;857078;-67
2021/07/20 05:29:40;;;;;;;13.42;9.88;;;;;;;;;;364522;144;857256;-67
2021/07/20 05:30:45;;;;;;;14.24;10.28;;;;;;;;;;361957;144;857914;-67
2021/07/20 05:31:47;;;;;;;13.02;9.79;;;;;;;;;;363580;146;867145;-68
2021/07/20 05:32:49;;;;;;;13.64;10.01;;;;;;;;;;367243;144;857946;-67
2021/07/20 05:33:50;;;;;;;16.99;9.15;;;;;;;;;;363752;144;857377;-68
2021/07/20 05:34:52;;;;;;;15.47;10.30;;;;;;;;;;362582;146;857208;-67
2021/07/20 05:35:55;;;;;;;14.69;10.14;;;;;;;;;;362471;146;858251;-67
2021/07/20 05:36:59;;;;;;;13.32;9.88;;;;;;;;;;362269;144;866554;-68
2021/07/20 05:38:01;;;;;;;15.46;10.39;;;;;;;;;;362455;144;858351;-66
2021/07/20 05:39:03;;;;;;;17.28;9.83;;;;;;;;;;363679;146;865043;-67
2021/07/20 05:40:06;;;;;;;17.31;10.15;;;;;;;;;;364491;146;859151;-67
2021/07/20 05:41:08;;;;;;;15.85;10.18;;;;;;;;;;362832;144;857383;-67
2021/07/20 05:42:09;;;;;;;13.81;10.05;;;;;;;;;;362456;146;858833;-67
2021/07/20 05:43:11;;;;;;;14.93;10.89;;;;;;;;;;363910;144;857416;-67
2021/07/20 05:44:13;;;;;;;13.08;10.24;;;;;;;;;;364864;146;863974;-67
2021/07/20 05:45:15;;;;;;;13.36;9.79;;;;;;;;;;362435;146;859053;-68
2021/07/20 05:46:17;;;;;;;13.74;10.32;;;;;;;;;;362740;146;857226;-68
2021/07/20 05:47:19;;;;;;;12.82;10.24;;;;;;;;;;364524;144;857246;-67
2021/07/20 05:48:21;;;;;;;11.96;10.17;;;;;;;;;;363949;144;864922;-67
2021/07/20 05:49:22;;;;;;;14.05;10.38;;;;;;;;;;363150;146;864996;-68
2021/07/20 05:50:25;;;;;;;12.09;10.30;;;;;;;;;;362495;146;857269;-67
2021/07/20 05:51:27;;;;;;;12.76;10.04;;;;;;;;;;362756;146;863772;-67
2021/07/20 05:52:29;;;;;;;17.51;10.58;;;;;;;;;;362657;146;865137;-68
2021/07/20 05:53:31;;;;;;;12.75;10.46;;;;;;;;;;365972;146;865473;-68
2021/07/20 05:54:33;;;;;;;14.55;10.25;;;;;;;;;;363659;144;859325;-67
2021/07/20 05:55:34;;;;;;;12.97;10.56;;;;;;;;;;364550;145;857364;-67
2021/07/20 05:56:36;;;;;;;12.62;10.20;;;;;;;;;;354018;149;857281;-68
2021/07/20 05:57:38;;;;;;;15.39;10.64;;;;;;;;;;353974;147;858312;-68
2021/07/20 05:58:40;;;;;;;13.05;10.01;;;;;;;;;;362571;144;858980;-68
2021/07/20 05:59:42;;;;;;;15.21;10.08;;;;;;;;;;356374;148;856340;-68
2021/07/20 06:00:46;;;;;;;18.95;10.45;;;;;;;;;;356275;146;858350;-68
2021/07/20 06:01:47;;;;;;;15.64;10.69;;;;;;;;;;363378;144;859500;-67
2021/07/20 06:02:49;;;;;;;12.25;10.20;;;;;;;;;;362465;144;858623;-68
2021/07/20 06:03:51;;;;;;;13.96;10.33;;;;;;;;;;362560;148;859042;-68
2021/07/20 06:04:53;;;;;;;14.77;10.43;;;;;;;;;;364114;144;857470;-69
2021/07/20 06:05:55;;;;;;;14.92;10.50;;;;;;;;;;364498;145;864893;-68